Time;durP1;ratioP1;P1;durP2;ratioP2;P2;SDS_P1;SDS_P2;PMS_P1;PMS_P2;Temp;Humidity;BMP_temperature;BMP_pressure;BME280_temperature;BME280_humidity;BME280_pressure;Samples;Min_cycle;Max_cycle;Signal;HPM_P1;HPM_P2
2022/03/17 00:00:36;;;;;;;89.70;36.40;;;;;;;5.54;73.74;102288.28;5054966;28;20036;-66
2022/03/17 00:03:03;;;;;;;81.50;33.92;;;;;;;5.55;73.51;102295.31;5072389;28;20044;-66
2022/03/17 00:05:28;;;;;;;62.38;27.05;;;;;;;5.49;74.01;102289.88;5071425;28;20040;-66
2022/03/17 00:07:53;;;;;;;96.30;30.45;;;;;;;5.48;74.02;102292.47;5068140;28;20456;-66
2022/03/17 00:10:19;;;;;;;105.72;30.05;;;;;;;5.42;74.17;102303.56;5062043;28;20043;-66
2022/03/17 00:12:46;;;;;;;108.88;35.60;;;;;;;5.40;74.23;102294.84;5073029;28;20503;-65
2022/03/17 00:15:12;;;;;;;109.90;33.80;;;;;;;5.41;74.42;102294.88;5071999;28;20039;-66
2022/03/17 00:17:38;;;;;;;78.88;29.73;;;;;;;5.58;73.71;102294.47;5037713;28;20144;-65
2022/03/17 00:20:07;;;;;;;79.50;29.30;;;;;;;5.39;74.21;102303.50;5075573;28;20132;-65
2022/03/17 00:22:33;;;;;;;81.88;29.92;;;;;;;5.35;74.36;102297.31;5076597;28;20040;-65
2022/03/17 00:24:59;;;;;;;103.43;33.10;;;;;;;5.33;74.20;102298.09;5059175;28;20054;-66
2022/03/17 00:27:24;;;;;;;103.30;32.92;;;;;;;5.28;74.17;102294.47;5075637;28;20033;-66
2022/03/17 00:29:50;;;;;;;62.53;26.88;;;;;;;5.18;74.28;102293.28;5076395;28;20067;-66
2022/03/17 00:32:16;;;;;;;109.90;31.75;;;;;;;5.14;74.62;102292.31;5076924;28;20452;-66
2022/03/17 00:37:26;;;;;;;66.93;27.35;;;;;;;5.13;75.10;102297.47;5076537;28;20055;-66
2022/03/17 00:39:52;;;;;;;77.70;27.50;;;;;;;5.16;75.10;102297.59;5076745;28;20024;-66
2022/03/17 00:42:18;;;;;;;73.25;27.33;;;;;;;5.17;74.96;102297.63;5057724;28;20125;-66
2022/03/17 00:44:44;;;;;;;83.15;30.30;;;;;;;5.22;74.87;102299.47;5075492;28;20131;-65
2022/03/17 00:47:10;;;;;;;59.85;26.08;;;;;;;5.22;74.73;102296.88;5058079;28;20058;-66
2022/03/17 00:49:35;;;;;;;76.28;27.83;;;;;;;5.32;74.60;102292.00;5075847;28;20041;-66
2022/03/17 00:52:00;;;;;;;82.68;31.58;;;;;;;5.35;74.29;102299.03;5075096;28;20477;-66
2022/03/17 00:54:26;;;;;;;58.10;23.88;;;;;;;5.35;73.93;102296.44;5071496;28;20067;-66
2022/03/17 00:56:52;;;;;;;139.68;32.88;;;;;;;5.47;73.27;102296.78;5075107;28;20404;-66
2022/03/17 00:59:18;;;;;;;82.38;26.48;;;;;;;5.47;72.95;102291.59;5074943;28;20028;-66
2022/03/17 01:01:43;;;;;;;61.10;25.48;;;;;;;5.45;73.15;102293.25;5076285;28;20036;-66
2022/03/17 01:04:08;;;;;;;60.40;23.58;;;;;;;5.47;73.00;102296.78;5076119;28;20464;-66
2022/03/17 01:06:34;;;;;;;58.30;23.02;;;;;;;5.26;73.75;102297.00;5075130;28;20048;-67
2022/03/17 01:08:59;;;;;;;90.45;24.02;;;;;;;5.19;73.85;102288.16;5073512;28;20174;-66
2022/03/17 01:11:25;;;;;;;93.50;27.08;;;;;;;5.02;74.64;102291.94;5034975;28;20503;-66
2022/03/17 01:13:50;;;;;;;189.68;31.48;;;;;;;5.02;74.74;102296.25;5071669;28;20061;-66
2022/03/17 01:16:16;;;;;;;153.52;29.13;;;;;;;4.88;75.47;102294.09;5071478;28;20041;-66
2022/03/17 01:18:41;;;;;;;168.15;27.50;;;;;;;4.88;75.72;102288.03;5039365;28;20106;-66
2022/03/17 01:21:07;;;;;;;79.35;21.23;;;;;;;4.84;75.74;102289.63;5074949;28;20036;-65
2022/03/17 01:23:32;;;;;;;130.32;29.65;;;;;;;4.88;75.78;102290.63;5076024;28;20036;-66
2022/03/17 01:25:58;;;;;;;64.20;23.13;;;;;;;4.90;75.79;102288.94;5071213;28;20045;-66
2022/03/17 01:28:23;;;;;;;77.05;24.67;;;;;;;4.90;75.79;102297.63;5073020;28;20404;-65
2022/03/17 01:30:50;;;;;;;66.22;23.88;;;;;;;4.92;75.73;102297.69;5074485;28;20157;-65
2022/03/17 01:33:16;;;;;;;65.18;23.25;;;;;;;4.95;75.49;102303.00;5075644;28;20388;-65
2022/03/17 01:35:41;;;;;;;138.23;27.60;;;;;;;4.88;75.65;102301.03;5075485;28;20044;-65
2022/03/17 01:38:07;;;;;;;121.10;25.65;;;;;;;4.89;75.58;102298.47;5074648;28;20389;-65
2022/03/17 01:40:33;;;;;;;120.28;24.80;;;;;;;4.83;75.76;102310.44;5073330;28;20043;-66
2022/03/17 01:42:58;;;;;;;79.07;26.23;;;;;;;4.83;75.60;102307.84;5070765;28;20427;-65
2022/03/17 01:45:25;;;;;;;87.10;26.13;;;;;;;4.81;75.63;102306.88;5056446;28;20112;-66
2022/03/17 01:47:50;;;;;;;83.00;23.40;;;;;;;4.74;75.96;102304.91;5073818;28;20054;-65
2022/03/17 01:50:17;;;;;;;67.22;23.15;;;;;;;4.81;75.63;102312.09;5074596;28;20387;-66
2022/03/17 01:52:43;;;;;;;65.68;22.90;;;;;;;4.83;75.60;102316.53;5073942;28;20056;-65
2022/03/17 01:55:10;;;;;;;129.48;28.52;;;;;;;4.81;75.24;102306.88;5048821;28;20041;-66
2022/03/17 01:57:38;;;;;;;61.65;23.75;;;;;;;4.78;75.29;102317.19;5074177;28;20494;-65
2022/03/17 02:00:08;;;;;;;112.78;24.98;;;;;;;4.73;75.30;102313.56;5073157;28;20044;-66
2022/03/17 02:02:34;;;;;;;76.88;25.20;;;;;;;4.75;75.40;102323.19;5074622;28;20388;-66
2022/03/17 02:05:03;;;;;;;60.35;22.35;;;;;;;4.81;75.12;102318.19;5074911;28;20037;-66
2022/03/17 02:07:29;;;;;;;47.55;20.45;;;;;;;4.87;74.86;102322.72;5074270;28;20369;-66
2022/03/17 02:09:54;;;;;;;67.53;20.05;;;;;;;4.87;74.78;102322.72;5074238;28;20044;-65
2022/03/17 02:15:08;;;;;;;56.72;21.55;;;;;;;4.65;75.52;102326.31;5074742;28;20039;-65
2022/03/17 02:17:43;;;;;;;131.63;30.65;;;;;;;4.64;75.62;102327.16;5056164;28;20450;-65
2022/03/17 02:20:11;;;;;;;87.25;24.65;;;;;;;4.53;76.21;102326.78;5057655;28;20032;-65
2022/03/17 02:22:46;;;;;;;104.70;24.48;;;;;;;4.51;76.44;102315.47;5055828;28;20043;-65
2022/03/17 02:27:58;;;;;;;117.50;25.70;;;;;;;4.46;75.91;102319.59;5072651;28;20034;-66
2022/03/17 02:30:23;;;;;;;85.13;22.45;;;;;;;4.47;76.06;102313.59;5069094;28;20036;-66
2022/03/17 02:32:50;;;;;;;47.70;21.73;;;;;;;4.50;76.05;102320.59;5067357;28;20098;-66
2022/03/17 02:35:22;;;;;;;49.75;20.63;;;;;;;4.52;75.87;102313.72;5074055;28;20547;-66
2022/03/17 02:37:48;;;;;;;57.67;20.95;;;;;;;4.39;75.84;102317.66;5054870;28;20399;-66
2022/03/17 02:40:14;;;;;;;62.97;20.77;;;;;;;4.36;76.00;102304.50;5072470;28;20036;-65
2022/03/17 02:42:39;;;;;;;62.90;22.23;;;;;;;4.41;75.93;102306.44;5072345;28;20050;-65
2022/03/17 02:45:07;;;;;;;130.15;25.70;;;;;;;4.36;76.14;102308.00;5073519;28;20483;-65
2022/03/17 02:47:33;;;;;;;46.20;20.27;;;;;;;4.38;76.11;102311.53;5074075;28;20054;-66
2022/03/17 02:49:58;;;;;;;86.25;24.75;;;;;;;4.33;76.22;102309.59;5073868;28;20462;-65
2022/03/17 02:52:25;;;;;;;94.40;24.50;;;;;;;4.30;76.41;102312.09;5056312;28;20140;-66
2022/03/17 02:54:52;;;;;;;54.90;21.50;;;;;;;4.35;76.34;102314.03;5073639;28;20504;-65
2022/03/17 02:57:18;;;;;;;89.97;22.52;;;;;;;4.33;75.96;102312.22;5074023;28;20490;-66
2022/03/17 02:59:44;;;;;;;55.90;20.63;;;;;;;4.38;76.02;102316.72;5072919;28;20028;-66
2022/03/17 03:02:09;;;;;;;90.68;20.90;;;;;;;4.39;75.78;102315.03;5072758;28;20036;-65
2022/03/17 03:04:34;;;;;;;110.72;24.55;;;;;;;4.31;75.74;102314.78;5073885;28;20392;-65
2022/03/17 03:07:02;;;;;;;81.40;21.35;;;;;;;4.29;75.81;102320.75;5074180;28;20036;-66
2022/03/17 03:09:28;;;;;;;50.58;18.88;;;;;;;4.35;75.63;102320.94;5071728;28;20043;-67
2022/03/17 03:11:54;;;;;;;59.78;19.30;;;;;;;4.38;75.03;102326.25;5071986;28;20037;-66
2022/03/17 03:14:20;;;;;;;55.20;19.15;;;;;;;4.39;74.94;102330.66;5072125;28;20408;-66
2022/03/17 03:16:45;;;;;;;120.97;23.25;;;;;;;4.34;74.74;102330.47;5072406;28;20063;-66
2022/03/17 03:19:10;;;;;;;144.77;26.20;;;;;;;4.26;75.16;102344.06;5073642;28;20031;-66
2022/03/17 03:21:36;;;;;;;81.05;20.48;;;;;;;4.31;75.38;102337.28;5073965;28;20122;-66
2022/03/17 03:24:01;;;;;;;112.60;21.70;;;;;;;4.32;75.10;102341.69;5073659;28;20472;-66
2022/03/17 03:26:27;;;;;;;92.75;21.45;;;;;;;4.36;74.86;102331.44;5072063;28;20024;-66
2022/03/17 03:28:54;;;;;;;78.22;21.10;;;;;;;4.31;74.75;102326.88;5073276;28;20480;-65
2022/03/17 03:31:21;;;;;;;82.07;21.65;;;;;;;4.23;74.76;102331.84;5055232;28;20391;-66
2022/03/17 03:33:46;;;;;;;155.63;24.13;;;;;;;4.14;75.04;102324.56;5055187;28;20381;-66
2022/03/17 03:38:56;;;;;;;48.90;17.95;;;;;;;4.02;75.31;102336.25;5071931;28;20047;-67
2022/03/17 03:41:22;;;;;;;124.05;23.38;;;;;;;4.01;75.41;102334.50;5071779;28;20041;-66
2022/03/17 03:43:47;;;;;;;125.22;25.13;;;;;;;3.86;75.62;102340.00;5072981;28;20543;-66
2022/03/17 03:46:14;;;;;;;105.57;22.85;;;;;;;3.90;75.55;102337.56;5073159;28;20617;-66
2022/03/17 03:48:41;;;;;;;203.50;25.05;;;;;;;3.80;75.71;102339.78;5068096;28;20110;-66
2022/03/17 03:51:06;;;;;;;124.30;20.58;;;;;;;3.74;76.00;102343.03;5051176;28;20045;-66
2022/03/17 03:56:16;;;;;;;111.15;20.50;;;;;;;3.68;75.65;102343.69;5072504;28;20808;-67
2022/03/17 03:58:41;;;;;;;46.28;17.23;;;;;;;3.58;75.59;102349.38;5070401;28;20044;-66
2022/03/17 04:01:07;;;;;;;44.30;16.55;;;;;;;3.58;75.65;102346.78;5072378;28;20111;-67
2022/03/17 04:03:32;;;;;;;106.72;19.75;;;;;;;3.58;75.63;102346.78;5069247;28;20033;-67
2022/03/17 04:05:58;;;;;;;37.75;16.80;;;;;;;3.55;75.67;102351.88;5036158;28;20127;-66
2022/03/17 04:08:24;;;;;;;42.45;17.17;;;;;;;3.60;75.39;102349.44;5046924;28;20036;-66
2022/03/17 04:10:49;;;;;;;50.75;19.50;;;;;;;3.50;75.61;102345.59;5052839;28;20469;-66
2022/03/17 04:13:15;;;;;;;56.85;17.73;;;;;;;3.52;75.54;102345.66;5070485;28;20041;-66
2022/03/17 04:15:40;;;;;;;42.40;17.20;;;;;;;3.49;75.54;102338.63;5072445;28;20044;-66
2022/03/17 04:18:06;;;;;;;49.25;18.38;;;;;;;3.49;75.49;102337.75;5070266;28;20048;-66
2022/03/17 04:20:31;;;;;;;47.60;17.95;;;;;;;3.45;75.44;102345.41;5072787;28;20037;-66
2022/03/17 04:22:56;;;;;;;56.55;19.80;;;;;;;3.35;75.51;102339.78;5072502;28;20040;-66
2022/03/17 04:25:22;;;;;;;58.60;21.92;;;;;;;3.36;75.52;102336.41;5054948;28;20036;-66
2022/03/17 04:27:47;;;;;;;65.28;20.13;;;;;;;3.29;75.77;102335.25;5071723;28;20040;-67
2022/03/17 04:30:13;;;;;;;103.70;21.63;;;;;;;3.22;76.14;102334.13;5072629;28;20036;-66
2022/03/17 04:32:38;;;;;;;55.28;18.38;;;;;;;3.19;76.45;102339.22;5071695;28;20487;-68
2022/03/17 04:35:04;;;;;;;62.95;19.45;;;;;;;3.25;76.26;102345.47;5071076;28;20190;-66
2022/03/17 04:37:30;;;;;;;79.63;21.30;;;;;;;3.28;76.17;102343.00;5071154;28;20047;-66
2022/03/17 04:39:55;;;;;;;137.07;22.85;;;;;;;3.19;76.27;102348.69;5071816;28;20040;-66
2022/03/17 04:42:21;;;;;;;38.15;17.67;;;;;;;3.10;76.46;102350.94;5072632;28;20025;-66
2022/03/17 04:44:47;;;;;;;37.17;17.25;;;;;;;3.20;76.35;102358.28;5072248;28;20038;-66
2022/03/17 04:47:13;;;;;;;63.65;21.42;;;;;;;3.20;76.28;102358.28;5072046;28;20396;-66
2022/03/17 04:49:38;;;;;;;28.50;15.70;;;;;;;3.24;75.94;102359.28;5072430;28;20032;-66
2022/03/17 04:53:26;;;;;;;47.97;20.13;;;;;;;3.24;75.99;102365.38;5072634;28;20090;-66
2022/03/17 04:54:49;;;;;;;38.30;16.92;;;;;;;3.26;75.87;102362.81;5072108;28;20044;-65
2022/03/17 04:57:15;;;;;;;56.75;22.90;;;;;;;3.27;75.74;102362.91;5072736;28;20025;-66
2022/03/17 04:59:40;;;;;;;61.60;21.65;;;;;;;3.18;75.67;102363.41;5071167;28;20036;-65
2022/03/17 05:02:06;;;;;;;36.95;19.08;;;;;;;3.28;75.77;102363.78;5071602;28;20503;-66
2022/03/17 05:04:32;;;;;;;37.97;18.10;;;;;;;3.31;75.38;102359.59;5072807;28;20044;-65
2022/03/17 05:06:57;;;;;;;40.55;21.42;;;;;;;3.51;74.87;102362.06;5081731;28;20140;-65
2022/03/17 05:09:24;;;;;;;31.10;18.67;;;;;;;3.59;74.13;102369.38;5075143;28;20120;-66
2022/03/17 05:11:49;;;;;;;42.80;19.52;;;;;;;3.57;73.96;102373.59;5073830;28;20033;-66
2022/03/17 05:14:15;;;;;;;59.63;23.30;;;;;;;3.63;73.62;102372.94;5076144;28;20036;-66
2022/03/17 05:16:40;;;;;;;68.68;23.95;;;;;;;3.68;73.46;102374.03;5075341;28;20119;-65
2022/03/17 05:19:06;;;;;;;41.85;19.40;;;;;;;3.51;73.73;102370.78;5053972;28;20135;-65
2022/03/17 05:21:32;;;;;;;63.40;22.92;;;;;;;3.40;74.09;102372.94;5059608;28;20107;-65
2022/03/17 05:23:57;;;;;;;48.50;23.23;;;;;;;3.32;74.30;102371.75;5076081;28;20128;-66
2022/03/17 05:26:23;;;;;;;37.50;20.40;;;;;;;3.35;74.25;102370.97;5075094;28;20112;-66
2022/03/17 05:28:48;;;;;;;47.63;21.65;;;;;;;3.40;74.12;102377.25;5074979;28;20054;-66
2022/03/17 05:31:14;;;;;;;40.08;20.98;;;;;;;3.43;73.89;102378.28;5076044;28;20040;-66
2022/03/17 05:33:39;;;;;;;32.55;18.52;;;;;;;3.51;73.56;102388.97;5075457;28;20052;-66
2022/03/17 05:36:05;;;;;;;41.13;20.77;;;;;;;3.56;73.04;102378.75;5075306;28;20032;-66
2022/03/17 05:38:31;;;;;;;51.90;22.85;;;;;;;3.49;72.95;102382.81;5054622;28;20045;-66
2022/03/17 05:40:56;;;;;;;39.20;20.55;;;;;;;3.52;72.72;102390.75;5071528;28;20056;-66
2022/03/17 05:43:23;;;;;;;28.92;17.88;;;;;;;3.54;72.80;102393.38;5074426;28;20491;-67
2022/03/17 05:45:49;;;;;;;55.28;23.60;;;;;;;3.55;72.54;102390.88;5070692;28;20056;-67
2022/03/17 05:48:14;;;;;;;54.42;21.25;;;;;;;3.52;72.46;102400.25;5071021;28;20124;-67
2022/03/17 05:50:42;;;;;;;40.67;19.77;;;;;;;3.46;72.41;102406.06;5073735;28;20119;-67
2022/03/17 05:53:09;;;;;;;38.22;18.88;;;;;;;3.38;72.97;102397.09;5069229;28;20059;-66
2022/03/17 05:55:35;;;;;;;42.63;20.70;;;;;;;3.35;73.06;102396.97;5091749;28;20037;-66
2022/03/17 05:58:01;;;;;;;37.00;18.50;;;;;;;3.40;73.28;102393.75;5054081;28;20044;-67
2022/03/17 06:00:28;;;;;;;44.38;19.67;;;;;;;3.53;72.90;102397.69;5070997;28;20036;-67
2022/03/17 06:02:55;;;;;;;35.47;18.63;;;;;;;3.58;72.16;102393.56;5056858;28;20036;-66
2022/03/17 06:05:21;;;;;;;37.25;18.02;;;;;;;3.62;72.02;102400.66;5072944;28;20041;-66
2022/03/17 06:07:51;;;;;;;32.08;17.30;;;;;;;3.75;72.07;102406.31;5074750;28;20032;-66
2022/03/17 06:10:23;;;;;;;48.88;20.38;;;;;;;3.82;71.20;102405.75;5073901;28;20036;-66
2022/03/17 06:12:53;;;;;;;61.00;23.20;;;;;;;3.83;71.17;102412.69;5073658;28;20545;-66
2022/03/17 06:15:26;;;;;;;35.78;17.55;;;;;;;3.82;71.21;102413.53;5073172;28;20032;-66
2022/03/17 06:17:56;;;;;;;56.70;19.92;;;;;;;3.80;71.02;102404.81;5073218;28;20036;-67
2022/03/17 06:20:24;;;;;;;61.88;21.05;;;;;;;3.85;71.10;102405.88;5075364;28;20135;-66
2022/03/17 06:22:52;;;;;;;51.92;19.75;;;;;;;3.94;70.83;102411.41;5073235;28;20031;-65
2022/03/17 06:25:19;;;;;;;36.10;19.77;;;;;;;4.05;70.43;102407.50;5074352;28;20043;-66
2022/03/17 06:27:46;;;;;;;46.38;23.70;;;;;;;4.08;70.47;102410.22;5072849;28;20049;-66
2022/03/17 06:30:26;;;;;;;43.42;20.80;;;;;;;4.07;70.26;102408.44;5056012;28;20037;-67
2022/03/17 06:32:52;;;;;;;50.83;23.83;;;;;;;4.18;70.24;102395.81;5073584;28;20042;-66
2022/03/17 06:35:20;;;;;;;59.50;27.63;;;;;;;4.20;69.86;102408.06;5069043;28;20538;-68
2022/03/17 06:37:47;;;;;;;45.17;22.90;;;;;;;4.24;69.97;102405.59;5073481;28;20074;-67
2022/03/17 06:40:13;;;;;;;36.15;22.05;;;;;;;4.17;70.10;102400.13;5072829;28;20048;-66
2022/03/17 06:42:39;;;;;;;38.78;21.13;;;;;;;4.30;70.18;102413.59;5055514;28;20040;-67
2022/03/17 06:45:05;;;;;;;37.38;19.27;;;;;;;4.37;69.88;102419.06;5074198;28;20028;-67
2022/03/17 06:47:31;;;;;;;41.85;22.00;;;;;;;4.45;69.81;102421.97;5073010;28;20370;-67
2022/03/17 06:49:56;;;;;;;57.33;27.65;;;;;;;4.55;69.63;102429.28;5072743;28;20043;-67
2022/03/17 06:52:22;;;;;;;41.53;23.67;;;;;;;4.64;68.95;102426.13;5074271;28;20486;-67
2022/03/17 06:54:48;;;;;;;39.78;25.42;;;;;;;4.72;68.67;102431.59;5072999;28;20029;-67
2022/03/17 06:57:18;;;;;;;42.55;28.38;;;;;;;4.82;68.54;102437.16;5056252;28;20059;-67
2022/03/17 06:59:44;;;;;;;43.95;28.67;;;;;;;4.85;68.44;102428.56;5055957;28;20491;-67
2022/03/17 07:02:09;;;;;;;42.58;26.20;;;;;;;4.94;68.45;102428.88;5072824;28;20036;-67
2022/03/17 07:04:35;;;;;;;43.88;25.40;;;;;;;5.03;68.29;102434.41;5073934;28;20116;-67
2022/03/17 07:07:00;;;;;;;43.80;23.92;;;;;;;5.13;68.11;102433.00;5074090;28;20472;-67
2022/03/17 07:09:25;;;;;;;51.80;26.17;;;;;;;5.21;67.87;102436.72;5073879;28;20025;-67
2022/03/17 07:11:51;;;;;;;42.60;23.17;;;;;;;5.35;67.48;102438.09;5073936;28;20024;-67
2022/03/17 07:14:16;;;;;;;37.55;21.30;;;;;;;5.52;66.88;102437.75;5072736;28;20037;-67
2022/03/17 07:16:42;;;;;;;40.22;22.38;;;;;;;5.66;66.40;102441.66;5072836;28;20033;-67
2022/03/17 07:19:07;;;;;;;44.78;25.80;;;;;;;5.73;66.15;102440.13;5055552;28;20561;-68
2022/03/17 07:21:33;;;;;;;46.10;28.02;;;;;;;5.72;66.03;102434.03;5068213;28;20037;-67
2022/03/17 07:23:59;;;;;;;132.65;57.47;;;;;;;5.87;65.66;102446.66;5085941;28;20033;-67
2022/03/17 07:26:24;;;;;;;67.50;36.45;;;;;;;5.96;65.35;102435.66;5065916;28;20040;-67
2022/03/17 07:28:50;;;;;;;58.92;33.65;;;;;;;6.04;65.14;102445.47;5072097;28;20036;-67
2022/03/17 07:31:15;;;;;;;93.65;41.63;;;;;;;6.12;64.98;102440.47;5072996;28;20435;-67
2022/03/17 07:33:43;;;;;;;56.22;33.85;;;;;;;6.17;64.64;102444.97;5072167;28;20131;-67
2022/03/17 07:36:08;;;;;;;68.45;35.22;;;;;;;6.33;64.36;102450.66;5071080;28;20039;-67
2022/03/17 07:38:34;;;;;;;61.63;31.30;;;;;;;6.47;63.94;102449.31;5072334;28;20040;-67
2022/03/17 07:40:59;;;;;;;86.97;39.72;;;;;;;6.59;63.52;102439.22;5071902;28;20111;-67
2022/03/17 07:43:25;;;;;;;88.20;40.88;;;;;;;6.75;62.98;102445.75;5073023;28;20037;-67
2022/03/17 07:45:53;;;;;;;64.20;32.85;;;;;;;6.80;62.91;102444.13;5071974;28;20037;-67
2022/03/17 07:48:18;;;;;;;54.05;31.95;;;;;;;6.89;62.61;102452.19;5071017;28;20040;-67
2022/03/17 07:50:44;;;;;;;133.02;62.28;;;;;;;7.00;62.18;102446.38;5070563;28;20086;-67
2022/03/17 07:53:09;;;;;;;50.22;29.45;;;;;;;7.10;61.88;102449.28;5071966;28;20044;-67
2022/03/17 07:55:35;;;;;;;55.63;32.83;;;;;;;7.13;61.69;102454.56;5072994;28;20032;-66
2022/03/17 07:58:01;;;;;;;57.85;33.08;;;;;;;7.27;61.33;102461.91;5051484;28;20431;-68
2022/03/17 08:00:27;;;;;;;66.13;33.72;;;;;;;7.40;60.95;102458.72;5072063;28;20158;-68
2022/03/17 08:02:54;;;;;;;89.53;39.72;;;;;;;7.50;60.61;102460.72;5073237;28;20037;-67
2022/03/17 08:05:20;;;;;;;83.80;38.83;;;;;;;7.63;60.32;102457.56;5054847;28;20040;-67
2022/03/17 08:07:45;;;;;;;77.10;37.40;;;;;;;7.74;59.85;102455.19;5072985;28;20479;-67
2022/03/17 08:10:12;;;;;;;86.07;39.15;;;;;;;7.82;59.52;102463.19;5070090;28;20053;-67
2022/03/17 08:12:37;;;;;;;66.93;35.47;;;;;;;7.85;59.44;102460.66;5063882;28;20039;-67
2022/03/17 08:15:05;;;;;;;64.47;36.88;;;;;;;7.97;59.23;102478.38;5060310;28;20035;-67
2022/03/17 08:17:31;;;;;;;129.57;64.07;;;;;;;8.06;59.04;102474.25;5067943;28;20029;-67
2022/03/17 08:19:57;;;;;;;59.40;33.38;;;;;;;8.11;58.41;102469.09;5068087;28;20041;-67
2022/03/17 08:22:24;;;;;;;91.15;50.42;;;;;;;8.25;58.51;102474.63;5071402;28;20059;-67
2022/03/17 08:24:50;;;;;;;58.33;35.03;;;;;;;8.41;58.13;102470.63;5071389;28;20451;-65
2022/03/17 08:27:15;;;;;;;59.80;34.10;;;;;;;8.47;57.94;102466.41;5071750;28;20575;-66
2022/03/17 08:29:42;;;;;;;49.53;30.45;;;;;;;8.62;57.56;102471.94;5071734;28;20453;-65
2022/03/17 08:32:08;;;;;;;43.03;26.45;;;;;;;8.66;57.20;102467.66;5071752;28;20115;-66
2022/03/17 08:34:34;;;;;;;67.30;38.75;;;;;;;8.70;57.12;102460.69;5071579;28;20032;-66
2022/03/17 08:37:00;;;;;;;58.72;35.22;;;;;;;8.81;56.83;102461.78;5070377;28;20041;-66
2022/03/17 08:39:26;;;;;;;96.32;56.90;;;;;;;8.93;56.54;102466.38;5073252;28;20029;-67
2022/03/17 08:41:52;;;;;;;50.80;31.80;;;;;;;9.01;56.34;102468.28;5055698;28;20040;-67
2022/03/17 08:44:19;;;;;;;40.95;25.58;;;;;;;9.05;56.08;102470.09;5059125;28;20037;-65
2022/03/17 08:49:28;;;;;;;35.47;22.63;;;;;;;9.16;56.05;102467.69;5075370;28;20042;-66
2022/03/17 08:51:56;;;;;;;33.38;21.75;;;;;;;9.26;55.74;102466.13;5075431;28;20120;-65
2022/03/17 08:54:24;;;;;;;34.58;22.15;;;;;;;9.30;55.49;102465.31;5075942;28;20036;-66
2022/03/17 08:56:51;;;;;;;31.42;21.33;;;;;;;9.37;55.46;102465.44;5076412;28;20051;-66
2022/03/17 08:59:17;;;;;;;29.80;20.08;;;;;;;9.44;55.26;102458.53;5074824;28;20047;-66
2022/03/17 09:01:43;;;;;;;36.08;23.77;;;;;;;9.44;55.00;102455.03;5076237;28;20033;-66
2022/03/17 09:04:13;;;;;;;34.25;23.08;;;;;;;9.45;55.04;102451.53;5074484;28;20142;-66
2022/03/17 09:06:41;;;;;;;31.77;21.30;;;;;;;9.53;55.08;102448.16;5074278;28;20120;-66
2022/03/17 09:09:07;;;;;;;42.67;23.58;;;;;;;9.63;54.78;102446.59;5075959;28;20052;-66
2022/03/17 09:11:34;;;;;;;37.00;22.38;;;;;;;9.69;54.73;102444.03;5073959;28;20028;-66
2022/03/17 09:14:00;;;;;;;46.67;27.83;;;;;;;9.79;54.60;102442.44;5075456;28;20474;-66
2022/03/17 09:16:26;;;;;;;39.47;26.25;;;;;;;9.85;54.45;102438.16;5069861;28;20029;-66
2022/03/17 09:18:51;;;;;;;40.50;26.42;;;;;;;9.89;54.05;102444.31;5060497;28;20036;-66
2022/03/17 09:21:17;;;;;;;40.67;24.80;;;;;;;9.97;54.06;102444.41;5075642;28;20044;-66
2022/03/17 09:23:43;;;;;;;34.05;23.35;;;;;;;10.04;53.86;102438.41;5074035;28;20043;-66
2022/03/17 09:26:08;;;;;;;31.27;21.05;;;;;;;10.08;53.78;102434.94;5075541;28;20468;-66
2022/03/17 09:28:34;;;;;;;39.90;25.45;;;;;;;10.23;53.63;102448.28;5075384;28;20127;-67
2022/03/17 09:31:00;;;;;;;43.65;26.70;;;;;;;10.32;53.43;102440.53;5074989;28;20531;-66
2022/03/17 09:33:26;;;;;;;35.25;23.60;;;;;;;10.42;53.28;102440.69;5074744;28;20112;-66
2022/03/17 09:35:56;;;;;;;35.92;24.02;;;;;;;10.50;52.77;102450.41;5075381;28;20085;-65
2022/03/17 09:38:22;;;;;;;37.97;24.00;;;;;;;10.58;52.83;102443.50;5074231;28;20045;-65
2022/03/17 09:40:48;;;;;;;38.78;25.80;;;;;;;10.62;52.43;102449.66;5074891;28;20407;-66
2022/03/17 09:43:20;;;;;;;32.95;24.23;;;;;;;10.72;52.51;102456.78;5075098;28;20032;-66
2022/03/17 09:45:49;;;;;;;;;;;;;;;10.79;51.17;102463.88;5074337;28;20127;-66
2022/03/17 09:48:14;;;;;;;32.00;20.92;;;;;;;10.90;52.27;102460.47;5073671;28;19927;-66
2022/03/17 09:50:41;;;;;;;34.08;23.00;;;;;;;11.02;51.90;102461.47;5074782;28;20040;-66
2022/03/17 09:53:08;;;;;;;32.10;21.92;;;;;;;11.10;51.63;102449.28;5057070;28;20044;-66
2022/03/17 09:55:34;;;;;;;29.88;21.10;;;;;;;11.27;51.50;102451.16;5055815;28;20048;-66
2022/03/17 09:58:01;;;;;;;30.33;20.65;;;;;;;11.36;51.23;102448.59;5057166;28;20404;-66
2022/03/17 10:00:47;;;;;;;30.42;21.23;;;;;;;11.46;51.06;102445.19;5070461;28;20097;-66
2022/03/17 10:03:12;;;;;;;33.25;21.42;;;;;;;11.59;50.26;102449.66;5072722;28;20036;-65
2022/03/17 10:05:37;;;;;;;33.60;23.27;;;;;;;11.74;50.40;102438.34;5074285;28;20075;-65
2022/03/17 10:08:03;;;;;;;30.85;20.60;;;;;;;11.83;50.03;102443.69;5073369;28;20400;-66
2022/03/17 10:10:35;;;;;;;30.25;20.02;;;;;;;11.84;47.50;102434.03;5053687;28;20036;-66
2022/03/17 10:13:06;;;;;;;30.45;19.27;;;;;;;12.04;48.88;102432.38;5071753;28;20037;-65
2022/03/17 10:15:32;;;;;;;30.27;22.00;;;;;;;12.12;48.28;102445.59;5095193;28;20127;-67
2022/03/17 10:17:57;;;;;;;35.35;23.67;;;;;;;12.25;48.47;102428.13;5055761;28;20127;-66
2022/03/17 10:20:34;;;;;;;32.30;21.98;;;;;;;12.31;48.10;102436.91;5071863;28;20029;-66
2022/03/17 10:23:01;;;;;;;31.17;21.77;;;;;;;12.35;47.73;102432.53;5053713;28;20503;-65
2022/03/17 10:25:32;;;;;;;30.73;20.65;;;;;;;12.40;47.35;102437.81;5064564;28;20071;-67
2022/03/17 10:27:58;;;;;;;29.45;19.75;;;;;;;12.48;47.48;102430.81;5073002;28;20043;-65
2022/03/17 10:30:30;;;;;;;27.10;19.38;;;;;;;12.56;46.99;102432.56;5073214;28;20384;-66
2022/03/17 10:32:58;;;;;;;29.53;20.60;;;;;;;12.67;47.02;102432.63;5073035;28;20033;-65
2022/03/17 10:35:34;;;;;;;30.13;20.25;;;;;;;12.77;46.31;102422.97;5073087;28;20032;-66
2022/03/17 10:38:13;;;;;;;27.58;18.75;;;;;;;12.88;45.44;102421.22;5068782;28;20125;-65
2022/03/17 10:40:41;;;;;;;27.85;19.08;;;;;;;12.99;46.18;102424.75;5036601;28;20483;-65
2022/03/17 10:43:16;;;;;;;26.40;18.33;;;;;;;13.10;45.04;102419.50;5070242;28;20133;-65
2022/03/17 10:45:42;;;;;;;27.45;18.88;;;;;;;13.18;45.75;102420.38;5052736;28;20059;-66
2022/03/17 10:48:08;;;;;;;27.70;20.17;;;;;;;13.23;45.03;102415.13;5049205;28;20044;-66
2022/03/17 10:50:39;;;;;;;26.35;18.30;;;;;;;13.39;45.03;102422.13;5072455;28;20115;-66
2022/03/17 10:53:04;;;;;;;28.63;19.75;;;;;;;13.50;44.71;102408.94;5055933;28;20499;-65
2022/03/17 10:55:32;;;;;;;28.40;20.55;;;;;;;13.64;44.36;102406.25;5073671;28;20071;-66
2022/03/17 10:58:15;;;;;;;27.15;19.17;;;;;;;13.68;42.29;102403.59;5056151;28;20048;-66
2022/03/17 11:00:52;;;;;;;28.27;19.70;;;;;;;13.75;42.67;102394.78;5072351;28;20119;-66
2022/03/17 11:03:19;;;;;;;32.83;20.25;;;;;;;13.85;43.68;102395.66;5072283;28;20032;-66
2022/03/17 11:05:45;;;;;;;26.50;18.08;;;;;;;13.93;43.22;102393.84;5072460;28;20037;-66
2022/03/17 11:08:11;;;;;;;25.70;17.88;;;;;;;14.02;42.80;102392.94;5071230;28;20135;-66
2022/03/17 11:10:40;;;;;;;25.40;17.80;;;;;;;14.05;41.73;102385.00;5055096;28;20106;-67
2022/03/17 11:13:11;;;;;;;25.23;16.75;;;;;;;14.01;41.61;102392.06;5073117;28;20392;-65
2022/03/17 11:15:56;;;;;;;28.25;18.98;;;;;;;14.10;39.98;102387.63;5073645;28;20464;-65
2022/03/17 11:18:24;;;;;;;24.13;16.08;;;;;;;14.03;41.80;102379.69;5053867;28;20037;-66
2022/03/17 11:21:09;;;;;;;22.00;15.93;;;;;;;14.20;41.31;102381.38;5071944;28;20041;-66
2022/03/17 11:23:55;;;;;;;22.40;15.93;;;;;;;14.20;39.48;102387.59;5071796;28;20037;-66
2022/03/17 11:26:35;;;;;;;22.77;16.38;;;;;;;14.22;39.29;102392.84;5072855;28;20035;-67
2022/03/17 11:29:09;;;;;;;25.35;18.30;;;;;;;14.27;39.34;102388.41;5073374;28;20107;-66